Champion — WCZ7631 — position and weather

sailwx.info

Track history (hours):
 
Tides and Currents Weather Stations Pressure Air Temp Water Temp Dewpoint Dewpoint Depression Visibility Wind Speed Wind Dir Waves Ship Positions

Champion

Owner: MC CULLEY MARINE SERVICES INC, FORT PIERCE, FL. More information available from US FCC via Universal Licensing System and Coast Guard Vessel Documentation Center.

Last reported at 2016-Aug-20 20:33 UTC. Time now 2016-Aug-28 14:05 UTC.
Position N 27°05' W 079°57'.

Length 20 m; draft 1.7 m.

Type: Towing. MMSI: 367005250.

Date/timePositionNaut miles runAvg speedWind from/ knotsBaromVisibWave heightAir tempDewpointWater temp
2016-Aug-20 20:33N 27°05' W 079°57'1110.7
2016-Aug-20 19:33N 26°55' W 079°57'2110.5
2016-Aug-20 17:34N 26°34' W 079°58'1010.1
2016-Aug-20 16:34N 26°24' W 079°60'10 9.9
2016-Aug-20 15:33N 26°14' W 080°01'10 9.7
2016-Aug-20 14:33N 26°04' W 080°02'10 9.6
2016-Aug-20 13:34N 25°54' W 080°03'9 8.7
2016-Aug-20 12:33N 25°46' W 080°06'6 6.4
2016-Aug-20 11:33N 25°40' W 080°07'6 6.2
2016-Aug-20 10:32N 25°33' W 080°08'  
2016-Aug-16 13:33N 25°44' W 080°07'5 5.0
2016-Aug-16 12:33N 25°49' W 080°07'5 5.2
2016-Aug-16 11:34N 25°54' W 080°06'5 5.2
2016-Aug-16 10:33N 25°59' W 080°05'5 4.5
2016-Aug-16 09:33N 26°04' W 080°04'3 3.4
2016-Aug-16 08:33N 26°07' W 080°04'3 3.3
2016-Aug-16 07:33N 26°10' W 080°04'14 4.7
2016-Aug-16 04:33N 26°24' W 080°03'5 4.5
2016-Aug-16 03:33N 26°29' W 080°02'20 4.7
2016-Aug-15 23:21N 26°48' W 080°01'4 4.9
2016-Aug-15 22:33N 26°52' W 080°02'5 4.6
2016-Aug-15 21:33N 26°57' W 080°03'5 4.8
2016-Aug-15 20:33N 27°01' W 080°05'  
2016-Aug-11 20:33N 27°03' W 080°05'5 5.1
2016-Aug-11 19:33N 26°58' W 080°03'0 0.0
2016-Aug-11 18:33N 26°58' W 080°03'0 0.1
2016-Aug-11 17:33N 26°58' W 080°03'3 3.3
2016-Aug-11 16:33N 26°55' W 080°02'7 7.0
2016-Aug-11 15:33N 26°48' W 080°01'0 0.0
2016-Aug-11 13:21N 26°48' W 080°01'0 0.2
2016-Aug-11 12:33N 26°48' W 080°01'0 0.0
2016-Aug-11 11:15N 26°48' W 080°01'0 0.3
2016-Aug-11 10:31N 26°48' W 080°01'4 3.7
2016-Aug-11 09:33N 26°51' W 080°02'5 4.7
2016-Aug-11 08:33N 26°56' W 080°03'5 5.2
2016-Aug-11 07:33N 27°01' W 080°05'  
Track history (hours):
 
Tides and Currents Weather Stations Pressure Air Temp Water Temp Dewpoint Dewpoint Depression Visibility Wind Speed Wind Dir Waves Ship Positions

Champion

Owner: MC CULLEY MARINE SERVICES INC, FORT PIERCE, FL. More information available from US FCC via Universal Licensing System and Coast Guard Vessel Documentation Center.

Last reported at 2016-Aug-20 20:33 UTC. Time now 2016-Aug-28 14:05 UTC.
Position N 27°05' W 079°57'.

Length 20 m; draft 1.7 m.

Type: Towing. MMSI: 367005250.

Date/timePositionNaut miles runAvg speedWind from/ knotsBaromVisibWave heightAir tempDewpointWater temp
2016-Aug-20 20:33N 27°05' W 079°57'1110.7
2016-Aug-20 19:33N 26°55' W 079°57'2110.5
2016-Aug-20 17:34N 26°34' W 079°58'1010.1
2016-Aug-20 16:34N 26°24' W 079°60'10 9.9
2016-Aug-20 15:33N 26°14' W 080°01'10 9.7
2016-Aug-20 14:33N 26°04' W 080°02'10 9.6
2016-Aug-20 13:34N 25°54' W 080°03'9 8.7
2016-Aug-20 12:33N 25°46' W 080°06'6 6.4
2016-Aug-20 11:33N 25°40' W 080°07'6 6.2
2016-Aug-20 10:32N 25°33' W 080°08'  
2016-Aug-16 13:33N 25°44' W 080°07'5 5.0
2016-Aug-16 12:33N 25°49' W 080°07'5 5.2
2016-Aug-16 11:34N 25°54' W 080°06'5 5.2
2016-Aug-16 10:33N 25°59' W 080°05'5 4.5
2016-Aug-16 09:33N 26°04' W 080°04'3 3.4
2016-Aug-16 08:33N 26°07' W 080°04'3 3.3
2016-Aug-16 07:33N 26°10' W 080°04'14 4.7
2016-Aug-16 04:33N 26°24' W 080°03'5 4.5
2016-Aug-16 03:33N 26°29' W 080°02'20 4.7
2016-Aug-15 23:21N 26°48' W 080°01'4 4.9
2016-Aug-15 22:33N 26°52' W 080°02'5 4.6
2016-Aug-15 21:33N 26°57' W 080°03'5 4.8
2016-Aug-15 20:33N 27°01' W 080°05'  
2016-Aug-11 20:33N 27°03' W 080°05'5 5.1
2016-Aug-11 19:33N 26°58' W 080°03'0 0.0
2016-Aug-11 18:33N 26°58' W 080°03'0 0.1
2016-Aug-11 17:33N 26°58' W 080°03'3 3.3
2016-Aug-11 16:33N 26°55' W 080°02'7 7.0
2016-Aug-11 15:33N 26°48' W 080°01'0 0.0
2016-Aug-11 13:21N 26°48' W 080°01'0 0.2
2016-Aug-11 12:33N 26°48' W 080°01'0 0.0
2016-Aug-11 11:15N 26°48' W 080°01'0 0.3
2016-Aug-11 10:31N 26°48' W 080°01'4 3.7
2016-Aug-11 09:33N 26°51' W 080°02'5 4.7
2016-Aug-11 08:33N 26°56' W 080°03'5 5.2
2016-Aug-11 07:33N 27°01' W 080°05'  

Dump ship's entire track history